createdAt,value
2022-10-19T00:01:22.437Z,10.88
2022-10-19T00:03:54.132Z,10.86
2022-10-19T00:06:27.834Z,10.89
2022-10-19T00:09:00.980Z,10.92
2022-10-19T00:11:31.046Z,10.92
2022-10-19T00:14:01.374Z,10.92
2022-10-19T00:16:34.660Z,10.87
2022-10-19T00:19:07.396Z,10.84
2022-10-19T00:21:35.616Z,10.79
2022-10-19T00:24:03.863Z,10.74
2022-10-19T00:26:33.127Z,10.66
2022-10-19T00:29:01.804Z,10.60
2022-10-19T00:31:29.911Z,10.53
2022-10-19T00:33:59.293Z,10.52
2022-10-19T00:36:32.026Z,10.54
2022-10-19T00:39:01.178Z,10.52
2022-10-19T00:41:32.578Z,10.52
2022-10-19T00:44:04.258Z,10.54
2022-10-19T00:46:35.816Z,10.52
2022-10-19T00:49:16.260Z,10.49
2022-10-19T00:51:49.290Z,10.47
2022-10-19T00:54:18.852Z,10.47
2022-10-19T00:56:50.551Z,10.48
2022-10-19T00:59:21.871Z,10.47
2022-10-19T01:01:50.375Z,10.43
2022-10-19T01:04:22.141Z,10.41
2022-10-19T01:09:24.439Z,10.41
2022-10-19T01:12:38.128Z,10.39
2022-10-19T01:15:32.075Z,10.40
2022-10-19T01:18:15.242Z,10.38
2022-10-19T01:21:22.339Z,10.41
2022-10-19T01:24:08.243Z,10.39
2022-10-19T01:27:19.844Z,10.36
2022-10-19T01:29:54.767Z,10.38
2022-10-19T01:32:41.909Z,10.37
2022-10-19T01:35:36.363Z,10.35
2022-10-19T01:38:35.157Z,10.38
2022-10-19T01:41:17.599Z,10.41
2022-10-19T01:44:04.173Z,10.44
2022-10-19T01:46:43.782Z,10.47
2022-10-19T01:49:21.258Z,10.46
2022-10-19T01:52:04.452Z,10.48
2022-10-19T01:54:39.763Z,10.49
2022-10-19T01:57:12.599Z,10.54
2022-10-19T01:59:42.349Z,10.52
2022-10-19T02:02:13.753Z,10.53
2022-10-19T02:04:43.223Z,10.54
2022-10-19T02:07:11.707Z,10.54
2022-10-19T02:09:39.700Z,10.57
2022-10-19T02:12:11.295Z,10.60
2022-10-19T02:14:52.540Z,10.58
2022-10-19T02:17:28.597Z,10.58
2022-10-19T02:19:58.127Z,10.56
2022-10-19T02:22:26.080Z,10.56
2022-10-19T02:24:54.006Z,10.57
2022-10-19T02:27:22.177Z,10.59
2022-10-19T02:29:50.328Z,10.61
2022-10-19T02:32:18.349Z,10.62
2022-10-19T02:34:46.532Z,10.62
2022-10-19T02:37:14.547Z,10.66
2022-10-19T02:39:42.543Z,10.66
2022-10-19T02:42:17.927Z,10.67
2022-10-19T02:45:09.049Z,10.73
2022-10-19T02:47:47.287Z,10.73
2022-10-19T02:50:16.424Z,10.67
2022-10-19T02:52:44.335Z,10.65
2022-10-19T02:55:12.530Z,10.63
2022-10-19T02:57:40.389Z,10.68
2022-10-19T03:00:09.784Z,10.67
2022-10-19T03:02:37.812Z,10.69
2022-10-19T03:05:06.307Z,10.69
2022-10-19T03:07:34.778Z,10.71
2022-10-19T03:10:03.612Z,10.71
2022-10-19T03:12:31.478Z,10.73
2022-10-19T03:14:59.348Z,10.74
2022-10-19T03:17:27.268Z,10.77
2022-10-19T03:19:55.672Z,10.80
2022-10-19T03:22:23.522Z,10.84
2022-10-19T03:24:51.297Z,10.87
2022-10-19T03:27:19.151Z,10.90
2022-10-19T03:29:47.040Z,10.90
2022-10-19T03:32:14.953Z,10.91
2022-10-19T03:34:42.871Z,10.88
2022-10-19T03:37:13.445Z,10.92
2022-10-19T03:39:42.012Z,10.94
2022-10-19T03:42:09.911Z,10.97
2022-10-19T03:44:37.820Z,10.96
2022-10-19T03:47:05.745Z,10.96
2022-10-19T03:49:34.680Z,11.00
2022-10-19T03:52:04.944Z,11.02
2022-10-19T03:54:32.792Z,11.05
2022-10-19T03:57:00.679Z,11.07
2022-10-19T03:59:28.520Z,11.09
2022-10-19T04:01:56.338Z,11.11
2022-10-19T04:04:24.170Z,11.13
2022-10-19T04:06:53.920Z,11.13
2022-10-19T04:09:23.100Z,11.15
2022-10-19T04:11:51.250Z,11.14
2022-10-19T04:14:31.926Z,11.16
2022-10-19T04:17:02.573Z,11.18
2022-10-19T04:19:31.798Z,11.18
2022-10-19T04:21:59.963Z,11.19
2022-10-19T04:24:28.464Z,11.20
2022-10-19T04:26:56.925Z,11.21
2022-10-19T04:29:29.738Z,11.21
2022-10-19T04:31:59.645Z,11.19
2022-10-19T04:34:27.653Z,11.17
2022-10-19T04:36:55.693Z,11.18
2022-10-19T04:39:23.481Z,11.20
2022-10-19T04:41:51.351Z,11.20
2022-10-19T04:44:19.911Z,11.23
2022-10-19T04:46:47.839Z,11.25
2022-10-19T04:49:18.015Z,11.25
2022-10-19T04:51:48.067Z,11.27
2022-10-19T04:54:15.985Z,11.26
2022-10-19T04:56:43.960Z,11.25
2022-10-19T04:59:11.926Z,11.26
2022-10-19T05:01:46.426Z,11.26
2022-10-19T05:04:15.497Z,11.24
2022-10-19T05:06:43.558Z,11.19
2022-10-19T05:09:11.658Z,11.17
2022-10-19T05:11:40.199Z,11.15
2022-10-19T05:14:08.111Z,11.14
2022-10-19T05:16:36.091Z,11.13
2022-10-19T05:19:04.023Z,11.15
2022-10-19T05:21:31.956Z,11.16
2022-10-19T05:23:59.853Z,11.17
2022-10-19T05:26:29.634Z,11.20
2022-10-19T05:29:04.920Z,11.22
2022-10-19T05:31:34.795Z,11.24
2022-10-19T05:34:04.134Z,11.25
2022-10-19T05:36:39.199Z,11.24
2022-10-19T05:39:13.619Z,11.26
2022-10-19T05:41:45.002Z,11.25
2022-10-19T05:44:21.387Z,11.28
2022-10-19T05:46:51.463Z,11.28
2022-10-19T05:49:22.018Z,11.26
2022-10-19T05:51:50.697Z,11.27
2022-10-19T05:54:21.764Z,11.30
2022-10-19T05:56:51.663Z,11.33
2022-10-19T05:59:21.600Z,11.34
2022-10-19T06:01:49.525Z,11.35
2022-10-19T06:06:50.191Z,11.37
2022-10-19T06:09:18.014Z,11.40
2022-10-19T06:11:46.507Z,11.42
2022-10-19T06:14:16.117Z,11.42
2022-10-19T06:16:46.113Z,11.42
2022-10-19T06:19:14.492Z,11.44
2022-10-19T06:21:45.913Z,11.45
2022-10-19T06:24:14.376Z,11.50
2022-10-19T06:26:42.453Z,11.53
2022-10-19T06:29:10.932Z,11.59
2022-10-19T06:31:38.890Z,11.61
2022-10-19T06:34:07.347Z,11.64
2022-10-19T06:36:35.568Z,11.66
2022-10-19T06:39:03.721Z,11.66
2022-10-19T06:41:32.674Z,11.69
2022-10-19T06:44:06.322Z,11.72
2022-10-19T06:46:34.205Z,11.77
2022-10-19T06:49:03.080Z,11.81
2022-10-19T06:51:34.172Z,11.82
2022-10-19T06:54:02.077Z,11.85
2022-10-19T06:56:30.025Z,11.90
2022-10-19T06:58:58.755Z,11.95
2022-10-19T07:01:26.807Z,11.98
2022-10-19T07:03:55.345Z,12.01
2022-10-19T07:06:23.986Z,12.03
2022-10-19T07:08:52.422Z,12.10
2022-10-19T07:11:22.663Z,12.12
2022-10-19T07:13:53.561Z,12.14
2022-10-19T07:16:22.130Z,12.17
2022-10-19T07:18:52.884Z,12.18
2022-10-19T07:21:23.922Z,12.22
2022-10-19T07:23:51.844Z,12.25
2022-10-19T07:26:26.868Z,12.30
2022-10-19T07:28:57.749Z,12.36
2022-10-19T07:31:28.372Z,12.41
2022-10-19T07:34:03.530Z,12.46
2022-10-19T07:36:35.820Z,12.50
2022-10-19T07:39:06.937Z,12.56
2022-10-19T07:41:35.130Z,12.65
2022-10-19T07:44:03.447Z,12.73
2022-10-19T07:46:39.175Z,12.83
2022-10-19T07:49:14.491Z,12.91
2022-10-19T07:51:43.159Z,12.98
2022-10-19T07:54:11.350Z,13.04
2022-10-19T07:56:39.689Z,13.11
2022-10-19T07:59:07.763Z,13.19
2022-10-19T08:01:44.710Z,13.24
2022-10-19T08:07:00.431Z,13.42
2022-10-19T08:09:51.567Z,13.50
2022-10-19T08:12:16.092Z,13.58
2022-10-19T08:14:44.051Z,13.65
2022-10-19T08:17:16.641Z,13.72
2022-10-19T08:19:47.048Z,13.80
2022-10-19T08:22:15.083Z,13.89
2022-10-19T08:24:43.001Z,13.95
2022-10-19T08:27:10.898Z,13.99
2022-10-19T08:29:38.808Z,14.00
2022-10-19T08:32:06.661Z,14.03
2022-10-19T08:34:35.097Z,14.06
2022-10-19T08:37:10.315Z,14.12
2022-10-19T08:39:47.957Z,14.14
2022-10-19T08:43:11.184Z,14.15
2022-10-19T08:45:47.092Z,14.24
2022-10-19T08:48:28.514Z,14.26
2022-10-19T08:50:58.592Z,14.28
2022-10-19T08:53:49.980Z,14.33
2022-10-19T08:56:49.351Z,14.36
2022-10-19T08:59:40.580Z,14.43
2022-10-19T09:02:31.424Z,14.49
2022-10-19T09:05:30.453Z,14.56
2022-10-19T09:07:59.434Z,14.64
2022-10-19T09:10:37.274Z,14.70
2022-10-19T09:13:41.368Z,14.77
2022-10-19T09:16:19.777Z,14.82
2022-10-19T09:18:47.641Z,14.90
2022-10-19T09:21:30.152Z,15.00
2022-10-19T09:24:16.237Z,15.02
2022-10-19T09:26:54.517Z,15.07
2022-10-19T09:29:44.449Z,15.15
2022-10-19T09:32:39.529Z,15.23
2022-10-19T09:35:20.636Z,15.30
2022-10-19T09:37:51.270Z,15.40
2022-10-19T09:40:23.607Z,15.49
2022-10-19T09:42:57.058Z,15.57
2022-10-19T09:45:55.940Z,15.59
2022-10-19T09:48:44.407Z,15.58
2022-10-19T09:51:15.465Z,15.57
2022-10-19T09:54:01.543Z,15.59
2022-10-19T09:56:29.660Z,15.64
2022-10-19T09:58:59.020Z,15.71
2022-10-19T10:01:41.579Z,15.76
2022-10-19T10:04:17.540Z,15.85
2022-10-19T10:06:48.565Z,15.89
2022-10-19T10:09:22.145Z,15.92
2022-10-19T10:11:51.692Z,16.00
2022-10-19T10:14:40.115Z,16.07
2022-10-19T10:17:18.114Z,16.20
2022-10-19T10:20:30.441Z,16.28
2022-10-19T10:23:05.156Z,16.41
2022-10-19T10:25:36.621Z,16.50
2022-10-19T10:28:24.338Z,16.57
2022-10-19T10:31:03.684Z,16.65
2022-10-19T10:36:29.319Z,16.77
2022-10-19T10:39:08.274Z,16.78
2022-10-19T10:41:44.391Z,16.75
2022-10-19T10:44:23.659Z,16.67
2022-10-19T10:46:58.729Z,16.66
2022-10-19T10:49:36.727Z,16.68
2022-10-19T10:52:15.675Z,16.69
2022-10-19T10:55:17.834Z,16.66
2022-10-19T10:57:53.896Z,16.65
2022-10-19T11:00:24.684Z,16.60
2022-10-19T11:03:00.975Z,16.56
2022-10-19T11:05:45.339Z,16.55
2022-10-19T11:08:34.143Z,16.58
2022-10-19T11:11:28.028Z,16.63
2022-10-19T11:14:26.846Z,16.66
2022-10-19T11:17:02.501Z,16.71
2022-10-19T11:19:44.537Z,16.71
2022-10-19T11:22:29.269Z,16.71
2022-10-19T11:25:15.131Z,16.67
2022-10-19T11:27:58.937Z,16.66
2022-10-19T11:30:27.747Z,16.62
2022-10-19T11:33:23.042Z,16.53
2022-10-19T11:35:58.347Z,16.51
2022-10-19T11:39:17.816Z,16.48
2022-10-19T11:42:16.871Z,16.44
2022-10-19T11:45:14.130Z,16.52
2022-10-19T11:48:09.390Z,16.69
2022-10-19T11:51:16.816Z,16.80
2022-10-19T11:54:25.212Z,16.89
2022-10-19T11:57:03.992Z,16.95
2022-10-19T12:00:15.221Z,16.97
2022-10-19T12:03:26.534Z,16.98
2022-10-19T12:06:11.888Z,16.92
2022-10-19T12:09:04.901Z,16.84
2022-10-19T12:12:07.491Z,16.76
2022-10-19T12:14:41.495Z,16.69
2022-10-19T12:17:18.647Z,16.65
2022-10-19T12:19:53.274Z,16.67
2022-10-19T12:22:29.154Z,16.72
2022-10-19T12:25:01.552Z,16.80
2022-10-19T12:27:40.811Z,16.86
2022-10-19T12:30:15.285Z,16.92
2022-10-19T12:33:03.572Z,16.95
2022-10-19T12:35:58.345Z,17.09
2022-10-19T12:38:43.946Z,17.28
2022-10-19T12:41:40.008Z,17.33
2022-10-19T12:44:51.797Z,17.37
2022-10-19T12:47:25.055Z,17.48
2022-10-19T12:49:55.664Z,17.60
2022-10-19T12:52:41.159Z,17.67
2022-10-19T12:55:17.773Z,17.64
2022-10-19T12:57:55.868Z,17.64
2022-10-19T13:00:29.077Z,17.62
2022-10-19T13:03:13.700Z,17.55
2022-10-19T13:05:42.156Z,17.47
2022-10-19T13:08:29.832Z,17.46
2022-10-19T13:11:15.219Z,17.51
2022-10-19T13:13:55.018Z,17.50
2022-10-19T13:16:29.089Z,17.48
2022-10-19T13:19:00.069Z,17.48
2022-10-19T13:21:51.219Z,17.53
2022-10-19T13:24:24.901Z,17.54
2022-10-19T13:27:04.646Z,17.53
2022-10-19T13:29:39.707Z,17.50
2022-10-19T13:32:31.124Z,17.52
2022-10-19T13:35:36.016Z,17.57
2022-10-19T13:38:12.913Z,17.53
2022-10-19T13:41:25.984Z,17.53
2022-10-19T13:44:08.811Z,17.51
2022-10-19T13:47:05.520Z,17.53
2022-10-19T13:49:56.145Z,17.51
2022-10-19T13:52:47.096Z,17.50
2022-10-19T13:55:51.705Z,17.49
2022-10-19T13:58:53.464Z,17.44
2022-10-19T14:01:21.355Z,17.45
2022-10-19T14:04:01.308Z,17.46
2022-10-19T14:06:40.915Z,17.51
2022-10-19T14:09:23.943Z,17.51
2022-10-19T14:11:54.594Z,17.52
2022-10-19T14:14:24.931Z,17.52
2022-10-19T14:17:03.072Z,17.51
2022-10-19T14:19:42.526Z,17.52
2022-10-19T14:22:30.129Z,17.50
2022-10-19T14:25:13.909Z,17.46
2022-10-19T14:27:42.103Z,17.41
2022-10-19T14:30:33.856Z,17.41
2022-10-19T14:33:09.314Z,17.37
2022-10-19T14:35:41.754Z,17.34
2022-10-19T14:38:21.752Z,17.34
2022-10-19T14:40:49.625Z,17.31
2022-10-19T14:43:24.445Z,17.30
2022-10-19T14:46:07.505Z,17.26
2022-10-19T14:48:39.353Z,17.19
2022-10-19T14:51:43.305Z,17.15
2022-10-19T14:54:38.995Z,17.07
2022-10-19T14:57:19.035Z,16.99
2022-10-19T14:59:55.002Z,16.91
2022-10-19T15:02:34.055Z,16.87
2022-10-19T15:05:05.358Z,16.84
2022-10-19T15:07:41.782Z,16.84
2022-10-19T15:10:42.970Z,16.87
2022-10-19T15:13:31.696Z,16.88
2022-10-19T15:15:59.832Z,16.84
2022-10-19T15:18:48.636Z,16.78
2022-10-19T15:21:21.820Z,16.71
2022-10-19T15:23:52.504Z,16.60
2022-10-19T15:26:26.436Z,16.52
2022-10-19T15:29:08.055Z,16.49
2022-10-19T15:31:36.247Z,16.46
2022-10-19T15:34:05.422Z,16.45
2022-10-19T15:36:33.803Z,16.44
2022-10-19T15:39:24.968Z,16.41
2022-10-19T15:41:53.686Z,16.37
2022-10-19T15:44:40.605Z,16.32
2022-10-19T15:47:21.764Z,16.27
2022-10-19T15:49:52.501Z,16.22
2022-10-19T15:52:23.759Z,16.17
2022-10-19T15:54:56.666Z,16.15
2022-10-19T15:57:38.161Z,16.09
2022-10-19T16:00:09.037Z,16.04
2022-10-19T16:02:36.839Z,15.99
2022-10-19T16:07:40.171Z,15.90
2022-10-19T16:10:16.113Z,15.85
2022-10-19T16:12:44.264Z,15.78
2022-10-19T16:15:17.447Z,15.73
2022-10-19T16:17:48.927Z,15.65
2022-10-19T16:20:18.047Z,15.61
2022-10-19T16:22:47.733Z,15.55
2022-10-19T16:25:16.242Z,15.48
2022-10-19T16:27:44.301Z,15.44
2022-10-19T16:30:13.655Z,15.37
2022-10-19T16:35:14.376Z,15.25
2022-10-19T16:37:42.324Z,15.17
2022-10-19T16:40:10.823Z,15.10
2022-10-19T16:42:38.855Z,15.07
2022-10-19T16:45:08.025Z,15.00
2022-10-19T16:47:36.092Z,14.93
2022-10-19T16:50:06.455Z,14.89
2022-10-19T16:52:34.716Z,14.84
2022-10-19T16:55:03.155Z,14.80
2022-10-19T16:57:31.024Z,14.77
2022-10-19T16:59:58.877Z,14.71
2022-10-19T17:02:26.777Z,14.66
2022-10-19T17:04:54.632Z,14.66
2022-10-19T17:07:22.870Z,14.63
2022-10-19T17:09:54.501Z,14.59
2022-10-19T17:12:22.935Z,14.57
2022-10-19T17:14:51.320Z,14.54
2022-10-19T17:17:19.339Z,14.50
2022-10-19T17:19:48.289Z,14.49
2022-10-19T17:22:16.298Z,14.47
2022-10-19T17:24:46.305Z,14.44
2022-10-19T17:27:14.704Z,14.42
2022-10-19T17:29:43.378Z,14.43
2022-10-19T17:32:11.248Z,14.39
2022-10-19T17:34:39.093Z,14.36
2022-10-19T17:37:06.950Z,14.33
2022-10-19T17:39:34.858Z,14.30
2022-10-19T17:42:04.287Z,14.29
2022-10-19T17:44:32.283Z,14.29
2022-10-19T17:47:01.298Z,14.28
2022-10-19T17:49:30.032Z,14.24
2022-10-19T17:51:58.661Z,14.22
2022-10-19T17:54:26.866Z,14.19
2022-10-19T17:56:54.912Z,14.18
2022-10-19T17:59:34.703Z,14.19
2022-10-19T18:02:06.362Z,14.21
2022-10-19T18:07:07.760Z,14.18
2022-10-19T18:09:35.636Z,14.20
2022-10-19T18:12:04.889Z,14.22
2022-10-19T18:14:35.338Z,14.21
2022-10-19T18:17:03.292Z,14.25
2022-10-19T18:19:31.924Z,14.27
2022-10-19T18:21:59.804Z,14.24
2022-10-19T18:24:28.143Z,14.23
2022-10-19T18:26:56.188Z,14.23
2022-10-19T18:29:26.602Z,14.25
2022-10-19T18:31:55.073Z,14.27
2022-10-19T18:34:26.452Z,14.27
2022-10-19T18:36:54.723Z,14.31
2022-10-19T18:39:23.383Z,14.30
2022-10-19T18:41:56.419Z,14.30
2022-10-19T18:44:26.670Z,14.30
2022-10-19T18:46:56.959Z,14.30
2022-10-19T18:49:25.782Z,14.33
2022-10-19T18:51:55.789Z,14.35
2022-10-19T18:54:26.392Z,14.35
2022-10-19T18:56:55.537Z,14.35
2022-10-19T18:59:23.611Z,14.35
2022-10-19T19:01:52.071Z,14.38
2022-10-19T19:04:20.242Z,14.40
2022-10-19T19:06:48.140Z,14.40
2022-10-19T19:09:17.485Z,14.41
2022-10-19T19:11:45.691Z,14.44
2022-10-19T19:14:18.251Z,14.43
2022-10-19T19:16:46.824Z,14.45
2022-10-19T19:19:18.457Z,14.45
2022-10-19T19:21:47.436Z,14.44
2022-10-19T19:24:20.268Z,14.45
2022-10-19T19:26:52.608Z,14.45
2022-10-19T19:29:22.349Z,14.45
2022-10-19T19:31:51.670Z,14.46
2022-10-19T19:34:19.837Z,14.50
2022-10-19T19:36:48.742Z,14.53
2022-10-19T19:39:20.349Z,14.54
2022-10-19T19:41:50.096Z,14.58
2022-10-19T19:44:18.904Z,14.56
2022-10-19T19:46:47.472Z,14.55
2022-10-19T19:49:15.736Z,14.56
2022-10-19T19:51:43.943Z,14.56
2022-10-19T19:54:11.971Z,14.56
2022-10-19T19:56:42.516Z,14.55
2022-10-19T19:59:13.858Z,14.54
2022-10-19T20:01:42.874Z,14.55
2022-10-19T20:04:12.360Z,14.55
2022-10-19T20:06:41.203Z,14.56
2022-10-19T20:09:10.717Z,14.56
2022-10-19T20:11:42.411Z,14.58
2022-10-19T20:14:12.791Z,14.60
2022-10-19T20:16:41.002Z,14.63
2022-10-19T20:19:14.406Z,14.63
2022-10-19T20:21:43.796Z,14.64
2022-10-19T20:24:12.956Z,14.63
2022-10-19T20:26:41.684Z,14.66
2022-10-19T20:29:09.864Z,14.66
2022-10-19T20:31:41.400Z,14.70
2022-10-19T20:34:13.654Z,14.69
2022-10-19T20:36:42.162Z,14.68
2022-10-19T20:39:10.572Z,14.68
2022-10-19T20:41:39.444Z,14.67
2022-10-19T20:44:08.352Z,14.66
2022-10-19T20:46:37.142Z,14.61
2022-10-19T20:49:05.367Z,14.58
2022-10-19T20:51:39.064Z,14.54
2022-10-19T20:54:12.268Z,14.51
2022-10-19T20:56:42.106Z,14.47
2022-10-19T20:59:19.907Z,14.44
2022-10-19T21:01:53.851Z,14.41
2022-10-19T21:04:23.408Z,14.38
2022-10-19T21:06:52.835Z,14.34
2022-10-19T21:09:23.676Z,14.31
2022-10-19T21:11:52.686Z,14.31
2022-10-19T21:14:28.415Z,14.37
2022-10-19T21:16:59.054Z,14.41
2022-10-19T21:19:29.918Z,14.46
2022-10-19T21:22:02.281Z,14.48
2022-10-19T21:24:34.227Z,14.53
2022-10-19T21:27:09.091Z,14.60
2022-10-19T21:29:37.400Z,14.64
2022-10-19T21:32:05.499Z,14.69
2022-10-19T21:34:33.504Z,14.74
2022-10-19T21:37:01.452Z,14.79
2022-10-19T21:39:29.295Z,14.84
2022-10-19T21:41:58.084Z,14.86
2022-10-19T21:44:26.158Z,14.88
2022-10-19T21:46:54.244Z,14.91
2022-10-19T21:49:22.213Z,14.92
2022-10-19T21:51:54.471Z,14.94
2022-10-19T21:54:25.453Z,14.94
2022-10-19T21:56:55.087Z,14.97
2022-10-19T21:59:23.100Z,14.99
2022-10-19T22:01:51.065Z,15.02
2022-10-19T22:04:19.257Z,15.02
2022-10-19T22:06:47.939Z,15.05
2022-10-19T22:09:20.820Z,15.07
2022-10-19T22:11:48.986Z,15.07
2022-10-19T22:14:17.535Z,15.09
2022-10-19T22:16:45.847Z,15.10
2022-10-19T22:19:14.202Z,15.13
2022-10-19T22:21:42.248Z,15.14
2022-10-19T22:24:15.599Z,15.13
2022-10-19T22:26:47.459Z,15.14
2022-10-19T22:29:15.867Z,15.13
2022-10-19T22:31:44.110Z,15.14
2022-10-19T22:34:16.842Z,15.16
2022-10-19T22:36:45.605Z,15.19
2022-10-19T22:39:16.457Z,15.19
2022-10-19T22:42:31.045Z,15.24
2022-10-19T22:44:59.074Z,15.28
2022-10-19T22:53:47.654Z,15.29
2022-10-19T22:56:15.678Z,15.35
2022-10-19T22:58:43.795Z,15.45
2022-10-19T23:01:15.337Z,15.47
2022-10-19T23:03:43.939Z,15.47
2022-10-19T23:06:14.785Z,15.44
2022-10-19T23:08:44.769Z,15.41
2022-10-19T23:11:13.530Z,15.41
2022-10-19T23:13:41.860Z,15.41
2022-10-19T23:16:10.197Z,15.41
2022-10-19T23:18:41.048Z,15.39
2022-10-19T23:21:13.630Z,15.42
2022-10-19T23:23:42.352Z,15.44
2022-10-19T23:26:17.976Z,15.46
2022-10-19T23:28:49.335Z,15.44
2022-10-19T23:31:26.657Z,15.43
2022-10-19T23:33:55.041Z,15.43
2022-10-19T23:36:28.350Z,15.43
2022-10-19T23:38:58.566Z,15.45
2022-10-19T23:41:26.824Z,15.46
2022-10-19T23:43:54.842Z,15.45
2022-10-19T23:46:22.782Z,15.43
2022-10-19T23:48:50.828Z,15.41
2022-10-19T23:51:21.268Z,15.42
2022-10-19T23:53:52.230Z,15.41
2022-10-19T23:56:27.266Z,15.40
2022-10-19T23:58:56.483Z,15.41
